sensor_id;sensor_type;location;lat;lon;timestamp;P1;durP1;ratioP1;P2;durP2;ratioP2
70975;SDS011;58635;51.198;6.010;2022-09-21T00:00:52;7.55;;;2.35;;
70975;SDS011;58635;51.198;6.010;2022-09-21T00:03:17;4.95;;;2.30;;
70975;SDS011;58635;51.198;6.010;2022-09-21T00:05:43;4.88;;;2.30;;
70975;SDS011;58635;51.198;6.010;2022-09-21T00:08:09;5.88;;;2.40;;
70975;SDS011;58635;51.198;6.010;2022-09-21T00:10:37;4.57;;;2.45;;
70975;SDS011;58635;51.198;6.010;2022-09-21T00:13:02;7.68;;;2.47;;
70975;SDS011;58635;51.198;6.010;2022-09-21T00:15:29;6.13;;;2.33;;
70975;SDS011;58635;51.198;6.010;2022-09-21T00:17:56;6.90;;;2.58;;
70975;SDS011;58635;51.198;6.010;2022-09-21T00:20:25;6.45;;;2.47;;
70975;SDS011;58635;51.198;6.010;2022-09-21T00:22:52;5.75;;;2.70;;
70975;SDS011;58635;51.198;6.010;2022-09-21T00:25:18;8.50;;;2.67;;
70975;SDS011;58635;51.198;6.010;2022-09-21T00:27:44;6.40;;;2.20;;
70975;SDS011;58635;51.198;6.010;2022-09-21T00:30:15;7.68;;;2.85;;
70975;SDS011;58635;51.198;6.010;2022-09-21T00:32:41;6.18;;;2.80;;
70975;SDS011;58635;51.198;6.010;2022-09-21T00:35:07;5.63;;;3.03;;
70975;SDS011;58635;51.198;6.010;2022-09-21T00:37:33;5.13;;;2.47;;
70975;SDS011;58635;51.198;6.010;2022-09-21T00:39:59;6.78;;;3.28;;
70975;SDS011;58635;51.198;6.010;2022-09-21T00:42:26;7.07;;;2.97;;
70975;SDS011;58635;51.198;6.010;2022-09-21T00:44:52;6.63;;;3.17;;
70975;SDS011;58635;51.198;6.010;2022-09-21T00:47:24;6.00;;;2.67;;
70975;SDS011;58635;51.198;6.010;2022-09-21T00:49:55;9.02;;;2.72;;
70975;SDS011;58635;51.198;6.010;2022-09-21T00:52:23;6.32;;;3.08;;
70975;SDS011;58635;51.198;6.010;2022-09-21T00:54:55;8.27;;;2.80;;
70975;SDS011;58635;51.198;6.010;2022-09-21T00:57:31;7.47;;;2.70;;
70975;SDS011;58635;51.198;6.010;2022-09-21T00:59:57;3.67;;;2.47;;
70975;SDS011;58635;51.198;6.010;2022-09-21T01:02:26;8.80;;;2.70;;
70975;SDS011;58635;51.198;6.010;2022-09-21T01:04:52;7.00;;;2.50;;
70975;SDS011;58635;51.198;6.010;2022-09-21T01:07:23;5.32;;;2.72;;
70975;SDS011;58635;51.198;6.010;2022-09-21T01:09:55;8.18;;;2.60;;
70975;SDS011;58635;51.198;6.010;2022-09-21T01:20:50;7.70;;;2.70;;
70975;SDS011;58635;51.198;6.010;2022-09-21T01:31:06;6.05;;;2.85;;
70975;SDS011;58635;51.198;6.010;2022-09-21T01:33:41;5.10;;;2.95;;
70975;SDS011;58635;51.198;6.010;2022-09-21T01:36:12;7.00;;;2.95;;
70975;SDS011;58635;51.198;6.010;2022-09-21T01:38:47;6.85;;;2.53;;
70975;SDS011;58635;51.198;6.010;2022-09-21T01:41:15;6.45;;;2.88;;
70975;SDS011;58635;51.198;6.010;2022-09-21T01:43:46;6.40;;;3.00;;
70975;SDS011;58635;51.198;6.010;2022-09-21T01:46:17;5.00;;;2.50;;
70975;SDS011;58635;51.198;6.010;2022-09-21T01:48:46;6.75;;;3.13;;
70975;SDS011;58635;51.198;6.010;2022-09-21T01:51:17;6.07;;;2.92;;
70975;SDS011;58635;51.198;6.010;2022-09-21T01:53:48;6.57;;;2.70;;
70975;SDS011;58635;51.198;6.010;2022-09-21T01:58:54;8.50;;;3.05;;
70975;SDS011;58635;51.198;6.010;2022-09-21T02:01:22;7.13;;;3.10;;
70975;SDS011;58635;51.198;6.010;2022-09-21T02:04:00;7.20;;;3.30;;
70975;SDS011;58635;51.198;6.010;2022-09-21T02:06:32;7.40;;;3.00;;
70975;SDS011;58635;51.198;6.010;2022-09-21T02:08:57;5.65;;;3.08;;
70975;SDS011;58635;51.198;6.010;2022-09-21T02:11:23;4.65;;;2.75;;
70975;SDS011;58635;51.198;6.010;2022-09-21T02:13:49;7.53;;;3.10;;
70975;SDS011;58635;51.198;6.010;2022-09-21T02:27:13;6.05;;;2.70;;
70975;SDS011;58635;51.198;6.010;2022-09-21T02:34:52;5.93;;;2.70;;
70975;SDS011;58635;51.198;6.010;2022-09-21T02:40:11;6.28;;;2.70;;
70975;SDS011;58635;51.198;6.010;2022-09-21T02:42:52;7.00;;;2.80;;
70975;SDS011;58635;51.198;6.010;2022-09-21T02:45:26;7.97;;;2.72;;
70975;SDS011;58635;51.198;6.010;2022-09-21T02:48:37;6.07;;;3.00;;
70975;SDS011;58635;51.198;6.010;2022-09-21T02:50:47;7.80;;;2.55;;
70975;SDS011;58635;51.198;6.010;2022-09-21T02:53:23;5.78;;;3.30;;
70975;SDS011;58635;51.198;6.010;2022-09-21T02:55:52;5.13;;;2.72;;
70975;SDS011;58635;51.198;6.010;2022-09-21T02:58:20;5.65;;;2.67;;
70975;SDS011;58635;51.198;6.010;2022-09-21T03:00:48;4.82;;;2.63;;
70975;SDS011;58635;51.198;6.010;2022-09-21T03:03:15;5.13;;;2.83;;
70975;SDS011;58635;51.198;6.010;2022-09-21T03:05:41;4.78;;;2.80;;
70975;SDS011;58635;51.198;6.010;2022-09-21T03:08:08;5.40;;;2.50;;
70975;SDS011;58635;51.198;6.010;2022-09-21T03:10:34;8.68;;;2.85;;
70975;SDS011;58635;51.198;6.010;2022-09-21T03:13:03;4.88;;;2.65;;
70975;SDS011;58635;51.198;6.010;2022-09-21T03:15:29;8.00;;;2.85;;
70975;SDS011;58635;51.198;6.010;2022-09-21T03:17:55;5.55;;;2.75;;
70975;SDS011;58635;51.198;6.010;2022-09-21T03:20:20;6.45;;;2.75;;
70975;SDS011;58635;51.198;6.010;2022-09-21T03:22:46;5.90;;;2.83;;
70975;SDS011;58635;51.198;6.010;2022-09-21T03:25:11;5.05;;;2.97;;
70975;SDS011;58635;51.198;6.010;2022-09-21T03:27:37;8.82;;;3.30;;
70975;SDS011;58635;51.198;6.010;2022-09-21T03:30:03;7.50;;;2.85;;
70975;SDS011;58635;51.198;6.010;2022-09-21T03:32:28;3.80;;;2.70;;
70975;SDS011;58635;51.198;6.010;2022-09-21T03:34:54;5.50;;;3.35;;
70975;SDS011;58635;51.198;6.010;2022-09-21T03:37:19;6.13;;;2.95;;
70975;SDS011;58635;51.198;6.010;2022-09-21T03:39:44;7.47;;;3.63;;
70975;SDS011;58635;51.198;6.010;2022-09-21T03:42:11;5.45;;;3.13;;
70975;SDS011;58635;51.198;6.010;2022-09-21T03:44:38;7.90;;;3.63;;
70975;SDS011;58635;51.198;6.010;2022-09-21T03:47:05;7.03;;;3.65;;
70975;SDS011;58635;51.198;6.010;2022-09-21T03:49:31;8.57;;;4.05;;
70975;SDS011;58635;51.198;6.010;2022-09-21T03:51:57;9.15;;;4.25;;
70975;SDS011;58635;51.198;6.010;2022-09-21T03:54:23;9.63;;;5.32;;
70975;SDS011;58635;51.198;6.010;2022-09-21T03:56:49;10.00;;;6.10;;
70975;SDS011;58635;51.198;6.010;2022-09-21T03:59:15;10.13;;;7.00;;
70975;SDS011;58635;51.198;6.010;2022-09-21T04:01:41;11.85;;;7.07;;
70975;SDS011;58635;51.198;6.010;2022-09-21T04:04:06;11.60;;;6.35;;
70975;SDS011;58635;51.198;6.010;2022-09-21T04:06:32;11.60;;;6.82;;
70975;SDS011;58635;51.198;6.010;2022-09-21T04:08:57;13.23;;;6.63;;
70975;SDS011;58635;51.198;6.010;2022-09-21T04:11:26;15.10;;;7.60;;
70975;SDS011;58635;51.198;6.010;2022-09-21T04:13:52;13.13;;;6.95;;
70975;SDS011;58635;51.198;6.010;2022-09-21T04:16:21;13.88;;;6.30;;
70975;SDS011;58635;51.198;6.010;2022-09-21T04:18:48;12.45;;;6.47;;
70975;SDS011;58635;51.198;6.010;2022-09-21T04:21:15;12.65;;;6.68;;
70975;SDS011;58635;51.198;6.010;2022-09-21T04:23:44;17.92;;;7.40;;
70975;SDS011;58635;51.198;6.010;2022-09-21T04:26:17;10.55;;;6.47;;
70975;SDS011;58635;51.198;6.010;2022-09-21T04:28:51;12.35;;;6.07;;
70975;SDS011;58635;51.198;6.010;2022-09-21T04:31:17;10.48;;;6.20;;
70975;SDS011;58635;51.198;6.010;2022-09-21T04:33:43;10.73;;;6.63;;
70975;SDS011;58635;51.198;6.010;2022-09-21T04:36:08;18.13;;;10.50;;
70975;SDS011;58635;51.198;6.010;2022-09-21T04:38:33;14.77;;;8.13;;
70975;SDS011;58635;51.198;6.010;2022-09-21T04:40:59;17.13;;;8.65;;
70975;SDS011;58635;51.198;6.010;2022-09-21T04:43:25;16.95;;;10.93;;
70975;SDS011;58635;51.198;6.010;2022-09-21T04:45:51;22.02;;;10.48;;
70975;SDS011;58635;51.198;6.010;2022-09-21T04:48:16;16.48;;;10.85;;
70975;SDS011;58635;51.198;6.010;2022-09-21T04:50:42;17.10;;;10.82;;
70975;SDS011;58635;51.198;6.010;2022-09-21T04:53:11;15.93;;;10.32;;
70975;SDS011;58635;51.198;6.010;2022-09-21T04:55:36;16.85;;;10.00;;
70975;SDS011;58635;51.198;6.010;2022-09-21T04:58:02;16.80;;;10.00;;
70975;SDS011;58635;51.198;6.010;2022-09-21T05:00:27;15.32;;;9.68;;
70975;SDS011;58635;51.198;6.010;2022-09-21T05:02:52;13.05;;;10.05;;
70975;SDS011;58635;51.198;6.010;2022-09-21T05:05:18;14.95;;;10.65;;
70975;SDS011;58635;51.198;6.010;2022-09-21T05:07:44;18.67;;;11.18;;
70975;SDS011;58635;51.198;6.010;2022-09-21T05:10:09;13.10;;;8.45;;
70975;SDS011;58635;51.198;6.010;2022-09-21T05:12:35;14.48;;;8.57;;
70975;SDS011;58635;51.198;6.010;2022-09-21T05:15:00;12.90;;;7.28;;
70975;SDS011;58635;51.198;6.010;2022-09-21T05:17:26;10.43;;;6.93;;
70975;SDS011;58635;51.198;6.010;2022-09-21T05:19:52;12.80;;;6.75;;
70975;SDS011;58635;51.198;6.010;2022-09-21T05:22:18;9.73;;;6.03;;
70975;SDS011;58635;51.198;6.010;2022-09-21T05:24:43;13.45;;;8.85;;
70975;SDS011;58635;51.198;6.010;2022-09-21T05:27:09;12.90;;;8.20;;
70975;SDS011;58635;51.198;6.010;2022-09-21T05:29:35;12.90;;;7.85;;
70975;SDS011;58635;51.198;6.010;2022-09-21T05:40:02;15.15;;;8.73;;
70975;SDS011;58635;51.198;6.010;2022-09-21T05:42:29;12.27;;;7.72;;
70975;SDS011;58635;51.198;6.010;2022-09-21T05:44:54;12.52;;;7.97;;
70975;SDS011;58635;51.198;6.010;2022-09-21T05:47:25;10.77;;;7.28;;
70975;SDS011;58635;51.198;6.010;2022-09-21T05:56:02;11.13;;;7.05;;
70975;SDS011;58635;51.198;6.010;2022-09-21T06:03:52;10.30;;;6.18;;
70975;SDS011;58635;51.198;6.010;2022-09-21T06:06:18;10.90;;;6.03;;
70975;SDS011;58635;51.198;6.010;2022-09-21T06:08:44;8.73;;;6.03;;
70975;SDS011;58635;51.198;6.010;2022-09-21T06:11:10;12.35;;;7.15;;
70975;SDS011;58635;51.198;6.010;2022-09-21T06:13:37;12.05;;;7.38;;
70975;SDS011;58635;51.198;6.010;2022-09-21T06:16:03;11.57;;;7.47;;
70975;SDS011;58635;51.198;6.010;2022-09-21T06:18:29;10.93;;;6.53;;
70975;SDS011;58635;51.198;6.010;2022-09-21T06:20:54;11.05;;;6.47;;
70975;SDS011;58635;51.198;6.010;2022-09-21T06:23:20;8.90;;;5.97;;
70975;SDS011;58635;51.198;6.010;2022-09-21T06:25:52;8.88;;;6.28;;
70975;SDS011;58635;51.198;6.010;2022-09-21T06:28:18;11.77;;;6.57;;
70975;SDS011;58635;51.198;6.010;2022-09-21T06:30:48;8.32;;;6.40;;
70975;SDS011;58635;51.198;6.010;2022-09-21T06:33:15;9.50;;;5.78;;
70975;SDS011;58635;51.198;6.010;2022-09-21T06:35:50;9.63;;;6.18;;
70975;SDS011;58635;51.198;6.010;2022-09-21T06:38:22;9.70;;;6.53;;
70975;SDS011;58635;51.198;6.010;2022-09-21T06:40:49;9.57;;;6.80;;
70975;SDS011;58635;51.198;6.010;2022-09-21T06:43:15;10.50;;;6.65;;
70975;SDS011;58635;51.198;6.010;2022-09-21T06:45:41;10.50;;;6.10;;
70975;SDS011;58635;51.198;6.010;2022-09-21T06:48:06;8.18;;;5.53;;
70975;SDS011;58635;51.198;6.010;2022-09-21T06:50:32;9.77;;;6.15;;
70975;SDS011;58635;51.198;6.010;2022-09-21T06:53:01;7.38;;;5.07;;
70975;SDS011;58635;51.198;6.010;2022-09-21T06:55:28;9.63;;;6.10;;
70975;SDS011;58635;51.198;6.010;2022-09-21T06:58:01;10.35;;;6.15;;
70975;SDS011;58635;51.198;6.010;2022-09-21T07:00:27;9.93;;;6.28;;
70975;SDS011;58635;51.198;6.010;2022-09-21T07:02:53;11.57;;;6.70;;
70975;SDS011;58635;51.198;6.010;2022-09-21T07:05:19;8.00;;;5.70;;
70975;SDS011;58635;51.198;6.010;2022-09-21T07:07:44;9.35;;;5.70;;
70975;SDS011;58635;51.198;6.010;2022-09-21T07:10:09;8.35;;;5.57;;
70975;SDS011;58635;51.198;6.010;2022-09-21T07:12:35;8.93;;;6.00;;
70975;SDS011;58635;51.198;6.010;2022-09-21T07:15:04;9.45;;;6.32;;
70975;SDS011;58635;51.198;6.010;2022-09-21T07:17:34;8.35;;;5.68;;
70975;SDS011;58635;51.198;6.010;2022-09-21T07:20:00;12.50;;;6.38;;
70975;SDS011;58635;51.198;6.010;2022-09-21T07:22:27;14.88;;;7.50;;
70975;SDS011;58635;51.198;6.010;2022-09-21T07:24:53;11.75;;;7.97;;
70975;SDS011;58635;51.198;6.010;2022-09-21T07:27:19;13.18;;;8.05;;
70975;SDS011;58635;51.198;6.010;2022-09-21T07:29:44;15.18;;;8.80;;
70975;SDS011;58635;51.198;6.010;2022-09-21T07:32:11;14.25;;;8.90;;
70975;SDS011;58635;51.198;6.010;2022-09-21T07:34:37;16.73;;;8.95;;
70975;SDS011;58635;51.198;6.010;2022-09-21T07:37:02;12.77;;;8.60;;
70975;SDS011;58635;51.198;6.010;2022-09-21T07:39:28;10.00;;;6.13;;
70975;SDS011;58635;51.198;6.010;2022-09-21T07:41:53;9.82;;;5.93;;
70975;SDS011;58635;51.198;6.010;2022-09-21T07:44:19;11.68;;;5.88;;
70975;SDS011;58635;51.198;6.010;2022-09-21T07:46:49;12.07;;;6.43;;
70975;SDS011;58635;51.198;6.010;2022-09-21T07:49:15;11.88;;;6.47;;
70975;SDS011;58635;51.198;6.010;2022-09-21T07:51:40;8.77;;;6.43;;
70975;SDS011;58635;51.198;6.010;2022-09-21T07:54:07;10.68;;;7.55;;
70975;SDS011;58635;51.198;6.010;2022-09-21T07:56:35;13.68;;;7.07;;
70975;SDS011;58635;51.198;6.010;2022-09-21T07:59:01;17.92;;;8.48;;
70975;SDS011;58635;51.198;6.010;2022-09-21T08:01:30;15.18;;;8.77;;
70975;SDS011;58635;51.198;6.010;2022-09-21T08:03:57;11.23;;;8.18;;
70975;SDS011;58635;51.198;6.010;2022-09-21T08:06:24;17.38;;;9.00;;
70975;SDS011;58635;51.198;6.010;2022-09-21T08:08:51;16.13;;;9.93;;
70975;SDS011;58635;51.198;6.010;2022-09-21T08:11:17;15.18;;;10.07;;
70975;SDS011;58635;51.198;6.010;2022-09-21T08:13:46;16.85;;;10.70;;
70975;SDS011;58635;51.198;6.010;2022-09-21T08:16:12;14.25;;;10.60;;
70975;SDS011;58635;51.198;6.010;2022-09-21T08:18:38;14.75;;;11.80;;
70975;SDS011;58635;51.198;6.010;2022-09-21T08:21:05;17.60;;;11.82;;
70975;SDS011;58635;51.198;6.010;2022-09-21T08:23:33;13.57;;;11.05;;
70975;SDS011;58635;51.198;6.010;2022-09-21T08:26:02;15.98;;;11.75;;
70975;SDS011;58635;51.198;6.010;2022-09-21T08:28:31;14.98;;;10.73;;
70975;SDS011;58635;51.198;6.010;2022-09-21T08:31:07;16.92;;;12.10;;
70975;SDS011;58635;51.198;6.010;2022-09-21T08:33:34;14.38;;;10.75;;
70975;SDS011;58635;51.198;6.010;2022-09-21T08:35:59;17.50;;;10.88;;
70975;SDS011;58635;51.198;6.010;2022-09-21T08:38:26;14.85;;;10.80;;
70975;SDS011;58635;51.198;6.010;2022-09-21T08:40:56;17.40;;;11.27;;
70975;SDS011;58635;51.198;6.010;2022-09-21T08:43:42;15.32;;;10.80;;
70975;SDS011;58635;51.198;6.010;2022-09-21T08:46:21;13.45;;;10.40;;
70975;SDS011;58635;51.198;6.010;2022-09-21T08:48:56;15.85;;;11.07;;
70975;SDS011;58635;51.198;6.010;2022-09-21T08:51:27;12.57;;;10.23;;
70975;SDS011;58635;51.198;6.010;2022-09-21T08:53:57;13.93;;;10.40;;
70975;SDS011;58635;51.198;6.010;2022-09-21T08:56:27;14.43;;;11.10;;
70975;SDS011;58635;51.198;6.010;2022-09-21T08:58:53;14.80;;;10.30;;
70975;SDS011;58635;51.198;6.010;2022-09-21T09:22:36;14.40;;;8.65;;
70975;SDS011;58635;51.198;6.010;2022-09-21T09:25:22;13.85;;;8.90;;
70975;SDS011;58635;51.198;6.010;2022-09-21T09:27:55;12.63;;;8.60;;
70975;SDS011;58635;51.198;6.010;2022-09-21T09:30:24;13.45;;;7.93;;
70975;SDS011;58635;51.198;6.010;2022-09-21T09:32:53;8.82;;;7.13;;
70975;SDS011;58635;51.198;6.010;2022-09-21T09:36:19;12.82;;;8.32;;
70975;SDS011;58635;51.198;6.010;2022-09-21T09:38:31;16.17;;;8.90;;
70975;SDS011;58635;51.198;6.010;2022-09-21T09:46:16;9.48;;;5.10;;
70975;SDS011;58635;51.198;6.010;2022-09-21T09:51:19;13.30;;;7.80;;
70975;SDS011;58635;51.198;6.010;2022-09-21T09:53:44;12.77;;;7.95;;
70975;SDS011;58635;51.198;6.010;2022-09-21T09:56:10;10.98;;;7.57;;
70975;SDS011;58635;51.198;6.010;2022-09-21T09:58:42;15.23;;;8.10;;
70975;SDS011;58635;51.198;6.010;2022-09-21T10:04:13;15.63;;;7.65;;
70975;SDS011;58635;51.198;6.010;2022-09-21T10:06:41;14.27;;;8.63;;
70975;SDS011;58635;51.198;6.010;2022-09-21T10:09:24;14.18;;;7.50;;
70975;SDS011;58635;51.198;6.010;2022-09-21T10:12:00;13.32;;;7.10;;
70975;SDS011;58635;51.198;6.010;2022-09-21T10:14:38;13.75;;;8.02;;
70975;SDS011;58635;51.198;6.010;2022-09-21T10:17:18;13.68;;;6.85;;
70975;SDS011;58635;51.198;6.010;2022-09-21T10:19:45;15.10;;;8.30;;
70975;SDS011;58635;51.198;6.010;2022-09-21T10:22:14;11.43;;;7.22;;
70975;SDS011;58635;51.198;6.010;2022-09-21T10:24:45;10.02;;;6.00;;
70975;SDS011;58635;51.198;6.010;2022-09-21T10:27:16;10.77;;;6.13;;
70975;SDS011;58635;51.198;6.010;2022-09-21T10:29:51;11.48;;;6.65;;
70975;SDS011;58635;51.198;6.010;2022-09-21T10:32:17;10.85;;;5.97;;
70975;SDS011;58635;51.198;6.010;2022-09-21T10:37:30;11.50;;;6.50;;
70975;SDS011;58635;51.198;6.010;2022-09-21T10:39:58;10.02;;;5.78;;
70975;SDS011;58635;51.198;6.010;2022-09-21T10:42:24;8.98;;;5.97;;
70975;SDS011;58635;51.198;6.010;2022-09-21T10:45:03;12.50;;;6.68;;
70975;SDS011;58635;51.198;6.010;2022-09-21T10:50:42;11.10;;;5.63;;
70975;SDS011;58635;51.198;6.010;2022-09-21T10:55:38;8.93;;;5.30;;
70975;SDS011;58635;51.198;6.010;2022-09-21T10:58:11;8.68;;;4.93;;
70975;SDS011;58635;51.198;6.010;2022-09-21T11:00:45;10.73;;;6.32;;
70975;SDS011;58635;51.198;6.010;2022-09-21T11:05:56;8.40;;;4.22;;
70975;SDS011;58635;51.198;6.010;2022-09-21T11:08:31;10.13;;;5.50;;
70975;SDS011;58635;51.198;6.010;2022-09-21T11:11:12;9.88;;;7.25;;
70975;SDS011;58635;51.198;6.010;2022-09-21T11:13:52;7.35;;;5.13;;
70975;SDS011;58635;51.198;6.010;2022-09-21T11:16:53;9.32;;;6.15;;
70975;SDS011;58635;51.198;6.010;2022-09-21T11:19:37;10.43;;;3.67;;
70975;SDS011;58635;51.198;6.010;2022-09-21T11:24:57;6.28;;;2.42;;
70975;SDS011;58635;51.198;6.010;2022-09-21T11:27:35;5.32;;;2.42;;
70975;SDS011;58635;51.198;6.010;2022-09-21T11:35:38;8.32;;;2.60;;
70975;SDS011;58635;51.198;6.010;2022-09-21T11:43:46;7.15;;;2.58;;
70975;SDS011;58635;51.198;6.010;2022-09-21T11:54:30;9.00;;;2.38;;
70975;SDS011;58635;51.198;6.010;2022-09-21T11:57:19;4.05;;;1.67;;
70975;SDS011;58635;51.198;6.010;2022-09-21T12:00:02;7.70;;;2.80;;
70975;SDS011;58635;51.198;6.010;2022-09-21T12:08:52;6.18;;;1.90;;
70975;SDS011;58635;51.198;6.010;2022-09-21T12:14:09;4.80;;;1.55;;
70975;SDS011;58635;51.198;6.010;2022-09-21T12:22:18;5.82;;;1.77;;
70975;SDS011;58635;51.198;6.010;2022-09-21T12:24:46;3.75;;;1.52;;
70975;SDS011;58635;51.198;6.010;2022-09-21T12:27:37;5.47;;;1.60;;
70975;SDS011;58635;51.198;6.010;2022-09-21T12:30:10;4.88;;;1.60;;
70975;SDS011;58635;51.198;6.010;2022-09-21T12:32:42;3.50;;;1.50;;
70975;SDS011;58635;51.198;6.010;2022-09-21T12:35:20;7.88;;;2.00;;
70975;SDS011;58635;51.198;6.010;2022-09-21T12:37:56;4.68;;;1.77;;
70975;SDS011;58635;51.198;6.010;2022-09-21T12:40:41;10.15;;;1.90;;
70975;SDS011;58635;51.198;6.010;2022-09-21T12:46:01;7.03;;;1.90;;
70975;SDS011;58635;51.198;6.010;2022-09-21T12:48:37;6.25;;;1.63;;
70975;SDS011;58635;51.198;6.010;2022-09-21T12:51:14;3.85;;;1.50;;
70975;SDS011;58635;51.198;6.010;2022-09-21T12:53:58;5.80;;;1.90;;
70975;SDS011;58635;51.198;6.010;2022-09-21T12:56:58;6.75;;;1.90;;
70975;SDS011;58635;51.198;6.010;2022-09-21T13:02:27;6.33;;;1.73;;
70975;SDS011;58635;51.198;6.010;2022-09-21T13:07:53;6.68;;;2.00;;
70975;SDS011;58635;51.198;6.010;2022-09-21T13:12:56;5.15;;;2.00;;
70975;SDS011;58635;51.198;6.010;2022-09-21T13:15:26;8.60;;;2.10;;
70975;SDS011;58635;51.198;6.010;2022-09-21T13:18:04;6.45;;;2.00;;
70975;SDS011;58635;51.198;6.010;2022-09-21T13:20:41;8.23;;;2.13;;
70975;SDS011;58635;51.198;6.010;2022-09-21T13:23:13;6.63;;;1.70;;
70975;SDS011;58635;51.198;6.010;2022-09-21T13:25:45;7.93;;;2.00;;
70975;SDS011;58635;51.198;6.010;2022-09-21T13:28:23;4.32;;;1.80;;
70975;SDS011;58635;51.198;6.010;2022-09-21T13:36:39;5.57;;;1.50;;
70975;SDS011;58635;51.198;6.010;2022-09-21T13:39:16;5.10;;;1.50;;
70975;SDS011;58635;51.198;6.010;2022-09-21T13:41:43;7.05;;;1.70;;
70975;SDS011;58635;51.198;6.010;2022-09-21T13:44:19;4.70;;;1.40;;
70975;SDS011;58635;51.198;6.010;2022-09-21T13:47:00;9.30;;;1.63;;
70975;SDS011;58635;51.198;6.010;2022-09-21T13:49:27;5.85;;;1.50;;
70975;SDS011;58635;51.198;6.010;2022-09-21T13:54:33;5.38;;;1.33;;
70975;SDS011;58635;51.198;6.010;2022-09-21T14:00:03;4.18;;;1.33;;
70975;SDS011;58635;51.198;6.010;2022-09-21T14:02:36;3.70;;;1.50;;
70975;SDS011;58635;51.198;6.010;2022-09-21T14:05:25;3.95;;;1.27;;
70975;SDS011;58635;51.198;6.010;2022-09-21T14:11:02;10.65;;;1.80;;
70975;SDS011;58635;51.198;6.010;2022-09-21T14:18:51;5.85;;;1.55;;
70975;SDS011;58635;51.198;6.010;2022-09-21T14:21:17;7.53;;;1.70;;
70975;SDS011;58635;51.198;6.010;2022-09-21T14:24:45;6.35;;;1.92;;
70975;SDS011;58635;51.198;6.010;2022-09-21T14:26:58;5.13;;;1.45;;
70975;SDS011;58635;51.198;6.010;2022-09-21T14:29:30;5.25;;;1.70;;
70975;SDS011;58635;51.198;6.010;2022-09-21T14:32:03;4.70;;;1.40;;
70975;SDS011;58635;51.198;6.010;2022-09-21T14:34:35;7.22;;;1.50;;
70975;SDS011;58635;51.198;6.010;2022-09-21T14:37:09;5.55;;;1.67;;
70975;SDS011;58635;51.198;6.010;2022-09-21T14:39:45;3.30;;;1.40;;
70975;SDS011;58635;51.198;6.010;2022-09-21T14:42:14;6.03;;;1.50;;
70975;SDS011;58635;51.198;6.010;2022-09-21T14:44:43;6.20;;;1.90;;
70975;SDS011;58635;51.198;6.010;2022-09-21T14:47:20;6.43;;;1.63;;
70975;SDS011;58635;51.198;6.010;2022-09-21T15:10:30;5.07;;;1.58;;
70975;SDS011;58635;51.198;6.010;2022-09-21T15:13:19;4.15;;;1.50;;
70975;SDS011;58635;51.198;6.010;2022-09-21T15:18:31;4.65;;;1.30;;
70975;SDS011;58635;51.198;6.010;2022-09-21T15:21:03;6.53;;;1.65;;
70975;SDS011;58635;51.198;6.010;2022-09-21T15:23:38;7.75;;;1.50;;
70975;SDS011;58635;51.198;6.010;2022-09-21T15:26:23;5.07;;;1.60;;
70975;SDS011;58635;51.198;6.010;2022-09-21T15:28:55;4.32;;;1.30;;
70975;SDS011;58635;51.198;6.010;2022-09-21T15:31:23;4.30;;;1.55;;
70975;SDS011;58635;51.198;6.010;2022-09-21T15:33:50;3.60;;;1.40;;
70975;SDS011;58635;51.198;6.010;2022-09-21T15:36:24;7.85;;;1.38;;
70975;SDS011;58635;51.198;6.010;2022-09-21T15:38:52;3.40;;;1.50;;
70975;SDS011;58635;51.198;6.010;2022-09-21T15:44:22;6.55;;;1.60;;
70975;SDS011;58635;51.198;6.010;2022-09-21T15:46:51;5.93;;;1.60;;
70975;SDS011;58635;51.198;6.010;2022-09-21T15:49:19;4.68;;;1.40;;
70975;SDS011;58635;51.198;6.010;2022-09-21T15:51:45;8.15;;;1.85;;
70975;SDS011;58635;51.198;6.010;2022-09-21T15:54:24;3.97;;;1.40;;
70975;SDS011;58635;51.198;6.010;2022-09-21T15:57:02;4.80;;;1.40;;
70975;SDS011;58635;51.198;6.010;2022-09-21T15:59:33;6.25;;;1.55;;
70975;SDS011;58635;51.198;6.010;2022-09-21T16:02:00;5.50;;;1.30;;
70975;SDS011;58635;51.198;6.010;2022-09-21T16:04:36;4.55;;;1.60;;
70975;SDS011;58635;51.198;6.010;2022-09-21T16:07:28;7.22;;;2.05;;
70975;SDS011;58635;51.198;6.010;2022-09-21T16:10:01;4.45;;;1.20;;
70975;SDS011;58635;51.198;6.010;2022-09-21T16:12:47;3.83;;;1.15;;
70975;SDS011;58635;51.198;6.010;2022-09-21T16:15:15;3.78;;;1.35;;
70975;SDS011;58635;51.198;6.010;2022-09-21T16:20:41;5.75;;;1.67;;
70975;SDS011;58635;51.198;6.010;2022-09-21T16:23:14;5.55;;;2.10;;
70975;SDS011;58635;51.198;6.010;2022-09-21T16:25:43;8.07;;;2.13;;
70975;SDS011;58635;51.198;6.010;2022-09-21T16:38:46;6.63;;;1.60;;
70975;SDS011;58635;51.198;6.010;2022-09-21T16:41:12;5.18;;;1.30;;
70975;SDS011;58635;51.198;6.010;2022-09-21T16:43:40;4.50;;;1.50;;
70975;SDS011;58635;51.198;6.010;2022-09-21T16:46:11;4.93;;;1.50;;
70975;SDS011;58635;51.198;6.010;2022-09-21T16:48:37;3.80;;;1.42;;
70975;SDS011;58635;51.198;6.010;2022-09-21T16:51:04;5.45;;;1.75;;
70975;SDS011;58635;51.198;6.010;2022-09-21T16:53:35;5.20;;;1.57;;
70975;SDS011;58635;51.198;6.010;2022-09-21T16:56:00;7.22;;;1.60;;
70975;SDS011;58635;51.198;6.010;2022-09-21T16:58:26;4.72;;;1.45;;
70975;SDS011;58635;51.198;6.010;2022-09-21T17:00:52;4.43;;;1.42;;
70975;SDS011;58635;51.198;6.010;2022-09-21T17:03:18;4.03;;;1.80;;
70975;SDS011;58635;51.198;6.010;2022-09-21T17:05:44;5.28;;;1.63;;
70975;SDS011;58635;51.198;6.010;2022-09-21T17:08:10;6.60;;;1.40;;
70975;SDS011;58635;51.198;6.010;2022-09-21T17:10:37;4.78;;;1.70;;
70975;SDS011;58635;51.198;6.010;2022-09-21T17:13:04;5.00;;;1.58;;
70975;SDS011;58635;51.198;6.010;2022-09-21T17:15:33;7.00;;;1.60;;
70975;SDS011;58635;51.198;6.010;2022-09-21T17:18:00;5.63;;;1.65;;
70975;SDS011;58635;51.198;6.010;2022-09-21T17:20:36;6.13;;;2.65;;
70975;SDS011;58635;51.198;6.010;2022-09-21T17:23:04;7.47;;;2.58;;
70975;SDS011;58635;51.198;6.010;2022-09-21T17:25:30;6.03;;;2.50;;
70975;SDS011;58635;51.198;6.010;2022-09-21T17:27:57;4.63;;;2.50;;
70975;SDS011;58635;51.198;6.010;2022-09-21T17:30:23;6.07;;;2.80;;
70975;SDS011;58635;51.198;6.010;2022-09-21T17:32:50;7.05;;;2.70;;
70975;SDS011;58635;51.198;6.010;2022-09-21T17:35:29;8.20;;;2.60;;
70975;SDS011;58635;51.198;6.010;2022-09-21T17:37:57;6.03;;;2.60;;
70975;SDS011;58635;51.198;6.010;2022-09-21T17:40:23;4.95;;;2.40;;
70975;SDS011;58635;51.198;6.010;2022-09-21T17:42:50;5.22;;;2.17;;
70975;SDS011;58635;51.198;6.010;2022-09-21T17:48:06;8.90;;;2.70;;
70975;SDS011;58635;51.198;6.010;2022-09-21T17:50:41;6.43;;;2.58;;
70975;SDS011;58635;51.198;6.010;2022-09-21T17:53:07;8.95;;;2.70;;
70975;SDS011;58635;51.198;6.010;2022-09-21T17:55:53;9.13;;;2.55;;
70975;SDS011;58635;51.198;6.010;2022-09-21T17:58:33;6.85;;;2.60;;
70975;SDS011;58635;51.198;6.010;2022-09-21T18:01:10;8.93;;;2.70;;
70975;SDS011;58635;51.198;6.010;2022-09-21T18:03:46;8.50;;;3.33;;
70975;SDS011;58635;51.198;6.010;2022-09-21T18:06:12;6.82;;;3.28;;
70975;SDS011;58635;51.198;6.010;2022-09-21T18:08:38;5.68;;;2.40;;
70975;SDS011;58635;51.198;6.010;2022-09-21T18:13:50;11.10;;;3.58;;
70975;SDS011;58635;51.198;6.010;2022-09-21T18:16:25;9.82;;;4.15;;
70975;SDS011;58635;51.198;6.010;2022-09-21T18:21:48;17.83;;;11.13;;
70975;SDS011;58635;51.198;6.010;2022-09-21T18:24:21;21.77;;;16.08;;
70975;SDS011;58635;51.198;6.010;2022-09-21T18:26:55;20.17;;;12.38;;
70975;SDS011;58635;51.198;6.010;2022-09-21T18:29:29;11.60;;;7.43;;
70975;SDS011;58635;51.198;6.010;2022-09-21T18:37:07;5.35;;;3.42;;
70975;SDS011;58635;51.198;6.010;2022-09-21T18:39:45;6.40;;;3.70;;